Hillsboro, West Virginia
Current Conditions -  °F | °C
As of 9:15 AM on Sunday 25 Jan 2015 (Local Time) from KLWB Reporting Station
Haze Haze  
Wind Chill: 34°   Ceiling: Unl
Heat Index: 34°   Visibility: 5mi
Dew Point: 32°   Wind: 3mph
Humidity: 90%   Direction: 160°SSE
Pressure: 29.83"   Gusts: NA
Location:  38.14°N, 80.21°W
Report Text: KLWB 251415Z AUTO 16003KT 5SM BR SCT036 01/00 A2983 RMK AO2 T00131002
Loading
Personal Weather Stations






























Interactive Weather Map New forecast layout! Learn more

10-Day Weather Forecast

Advertisements
Track Severe Weather on mobile